sensor_id;sensor_type;location;lat;lon;timestamp;P1;durP1;ratioP1;P2;durP2;ratioP2
17858;SDS011;35426;30.698;104.050;2022-10-15T00:01:10;182.27;;;95.47;;
17858;SDS011;35426;30.698;104.050;2022-10-15T00:03:46;179.27;;;92.10;;
17858;SDS011;35426;30.698;104.050;2022-10-15T00:06:23;186.00;;;92.90;;
17858;SDS011;35426;30.698;104.050;2022-10-15T00:08:57;170.60;;;93.07;;
17858;SDS011;35426;30.698;104.050;2022-10-15T00:11:35;185.27;;;93.07;;
17858;SDS011;35426;30.698;104.050;2022-10-15T00:14:09;171.87;;;91.10;;
17858;SDS011;35426;30.698;104.050;2022-10-15T00:16:44;173.97;;;91.20;;
17858;SDS011;35426;30.698;104.050;2022-10-15T00:19:18;176.70;;;91.23;;
17858;SDS011;35426;30.698;104.050;2022-10-15T00:21:54;166.90;;;89.67;;
17858;SDS011;35426;30.698;104.050;2022-10-15T00:24:34;173.63;;;90.63;;
17858;SDS011;35426;30.698;104.050;2022-10-15T00:27:09;176.87;;;88.80;;
17858;SDS011;35426;30.698;104.050;2022-10-15T00:29:44;175.10;;;87.83;;
17858;SDS011;35426;30.698;104.050;2022-10-15T00:32:18;174.70;;;88.80;;
17858;SDS011;35426;30.698;104.050;2022-10-15T00:34:53;173.00;;;89.53;;
17858;SDS011;35426;30.698;104.050;2022-10-15T00:37:29;173.97;;;91.47;;
17858;SDS011;35426;30.698;104.050;2022-10-15T00:40:05;181.40;;;92.63;;
17858;SDS011;35426;30.698;104.050;2022-10-15T00:42:40;178.90;;;91.37;;
17858;SDS011;35426;30.698;104.050;2022-10-15T00:45:15;178.17;;;90.77;;
17858;SDS011;35426;30.698;104.050;2022-10-15T00:47:50;167.73;;;88.00;;
17858;SDS011;35426;30.698;104.050;2022-10-15T00:50:26;171.27;;;90.70;;
17858;SDS011;35426;30.698;104.050;2022-10-15T00:53:04;162.23;;;89.17;;
17858;SDS011;35426;30.698;104.050;2022-10-15T00:55:41;172.73;;;91.27;;
17858;SDS011;35426;30.698;104.050;2022-10-15T00:58:18;171.87;;;92.00;;
17858;SDS011;35426;30.698;104.050;2022-10-15T01:00:58;183.10;;;94.67;;
17858;SDS011;35426;30.698;104.050;2022-10-15T01:03:33;183.43;;;96.67;;
17858;SDS011;35426;30.698;104.050;2022-10-15T01:06:13;180.17;;;92.87;;
17858;SDS011;35426;30.698;104.050;2022-10-15T01:08:50;166.03;;;92.63;;
17858;SDS011;35426;30.698;104.050;2022-10-15T01:11:29;171.47;;;91.60;;
17858;SDS011;35426;30.698;104.050;2022-10-15T01:14:24;174.43;;;94.07;;
17858;SDS011;35426;30.698;104.050;2022-10-15T01:17:10;176.50;;;94.93;;
17858;SDS011;35426;30.698;104.050;2022-10-15T01:23:16;167.07;;;90.83;;
17858;SDS011;35426;30.698;104.050;2022-10-15T01:26:12;173.70;;;94.30;;
17858;SDS011;35426;30.698;104.050;2022-10-15T01:29:18;185.43;;;95.07;;
17858;SDS011;35426;30.698;104.050;2022-10-15T01:32:10;172.53;;;91.37;;
17858;SDS011;35426;30.698;104.050;2022-10-15T01:34:52;175.77;;;94.10;;
17858;SDS011;35426;30.698;104.050;2022-10-15T01:37:34;183.53;;;94.87;;
17858;SDS011;35426;30.698;104.050;2022-10-15T01:40:16;175.97;;;92.23;;
17858;SDS011;35426;30.698;104.050;2022-10-15T01:42:55;164.03;;;90.40;;
17858;SDS011;35426;30.698;104.050;2022-10-15T01:45:42;162.43;;;89.07;;
17858;SDS011;35426;30.698;104.050;2022-10-15T01:48:35;174.27;;;89.73;;
17858;SDS011;35426;30.698;104.050;2022-10-15T01:51:13;162.90;;;89.33;;
17858;SDS011;35426;30.698;104.050;2022-10-15T01:53:50;150.90;;;85.93;;
17858;SDS011;35426;30.698;104.050;2022-10-15T01:56:27;149.90;;;84.60;;
17858;SDS011;35426;30.698;104.050;2022-10-15T01:59:03;151.30;;;82.47;;
17858;SDS011;35426;30.698;104.050;2022-10-15T02:01:41;154.77;;;86.80;;
17858;SDS011;35426;30.698;104.050;2022-10-15T02:04:20;162.70;;;87.63;;
17858;SDS011;35426;30.698;104.050;2022-10-15T02:06:59;171.70;;;91.03;;
17858;SDS011;35426;30.698;104.050;2022-10-15T02:09:41;168.93;;;94.10;;
17858;SDS011;35426;30.698;104.050;2022-10-15T02:12:25;168.50;;;91.40;;
17858;SDS011;35426;30.698;104.050;2022-10-15T02:15:11;157.10;;;88.23;;
17858;SDS011;35426;30.698;104.050;2022-10-15T02:17:51;166.20;;;90.40;;
17858;SDS011;35426;30.698;104.050;2022-10-15T02:20:38;159.93;;;87.97;;
17858;SDS011;35426;30.698;104.050;2022-10-15T02:23:21;162.07;;;87.90;;
17858;SDS011;35426;30.698;104.050;2022-10-15T02:26:01;150.23;;;81.50;;
17858;SDS011;35426;30.698;104.050;2022-10-15T02:28:44;151.27;;;86.07;;
17858;SDS011;35426;30.698;104.050;2022-10-15T02:31:25;164.47;;;88.73;;
17858;SDS011;35426;30.698;104.050;2022-10-15T02:34:06;150.90;;;86.23;;
17858;SDS011;35426;30.698;104.050;2022-10-15T02:36:46;159.77;;;88.27;;
17858;SDS011;35426;30.698;104.050;2022-10-15T02:39:24;154.63;;;86.30;;
17858;SDS011;35426;30.698;104.050;2022-10-15T02:42:01;160.03;;;90.80;;
17858;SDS011;35426;30.698;104.050;2022-10-15T02:44:38;152.33;;;85.47;;
17858;SDS011;35426;30.698;104.050;2022-10-15T02:47:15;151.90;;;84.60;;
17858;SDS011;35426;30.698;104.050;2022-10-15T02:49:50;152.03;;;87.23;;
17858;SDS011;35426;30.698;104.050;2022-10-15T02:52:28;161.63;;;88.10;;
17858;SDS011;35426;30.698;104.050;2022-10-15T02:55:04;155.30;;;87.50;;
17858;SDS011;35426;30.698;104.050;2022-10-15T02:57:41;156.20;;;89.77;;
17858;SDS011;35426;30.698;104.050;2022-10-15T03:00:30;156.23;;;91.93;;
17858;SDS011;35426;30.698;104.050;2022-10-15T03:03:07;156.40;;;89.67;;
17858;SDS011;35426;30.698;104.050;2022-10-15T03:05:46;158.63;;;88.83;;
17858;SDS011;35426;30.698;104.050;2022-10-15T03:08:24;146.33;;;83.90;;
17858;SDS011;35426;30.698;104.050;2022-10-15T03:11:01;147.27;;;82.10;;
17858;SDS011;35426;30.698;104.050;2022-10-15T03:13:40;136.03;;;79.83;;
17858;SDS011;35426;30.698;104.050;2022-10-15T03:16:15;140.53;;;77.63;;
17858;SDS011;35426;30.698;104.050;2022-10-15T03:18:50;139.73;;;78.33;;
17858;SDS011;35426;30.698;104.050;2022-10-15T03:21:26;148.60;;;82.10;;
17858;SDS011;35426;30.698;104.050;2022-10-15T03:24:14;149.10;;;83.37;;
17858;SDS011;35426;30.698;104.050;2022-10-15T03:26:54;159.70;;;87.83;;
17858;SDS011;35426;30.698;104.050;2022-10-15T03:29:33;146.70;;;83.30;;
17858;SDS011;35426;30.698;104.050;2022-10-15T03:32:07;148.87;;;85.00;;
17858;SDS011;35426;30.698;104.050;2022-10-15T03:34:43;163.40;;;86.73;;
17858;SDS011;35426;30.698;104.050;2022-10-15T03:37:19;140.93;;;82.93;;
17858;SDS011;35426;30.698;104.050;2022-10-15T03:39:59;144.50;;;83.50;;
17858;SDS011;35426;30.698;104.050;2022-10-15T03:42:43;148.97;;;82.80;;
17858;SDS011;35426;30.698;104.050;2022-10-15T03:45:24;148.83;;;83.20;;
17858;SDS011;35426;30.698;104.050;2022-10-15T03:48:17;141.03;;;78.97;;
17858;SDS011;35426;30.698;104.050;2022-10-15T03:51:00;144.33;;;82.67;;
17858;SDS011;35426;30.698;104.050;2022-10-15T03:53:37;144.70;;;79.53;;
17858;SDS011;35426;30.698;104.050;2022-10-15T03:56:17;137.67;;;76.40;;
17858;SDS011;35426;30.698;104.050;2022-10-15T03:58:58;124.13;;;69.63;;
17858;SDS011;35426;30.698;104.050;2022-10-15T04:01:44;138.47;;;77.43;;
17858;SDS011;35426;30.698;104.050;2022-10-15T04:04:24;115.33;;;67.27;;
17858;SDS011;35426;30.698;104.050;2022-10-15T04:07:05;123.07;;;66.33;;
17858;SDS011;35426;30.698;104.050;2022-10-15T04:09:42;116.00;;;66.33;;
17858;SDS011;35426;30.698;104.050;2022-10-15T04:12:30;114.70;;;64.33;;
17858;SDS011;35426;30.698;104.050;2022-10-15T04:15:09;118.03;;;66.60;;
17858;SDS011;35426;30.698;104.050;2022-10-15T04:17:58;114.57;;;65.07;;
17858;SDS011;35426;30.698;104.050;2022-10-15T04:20:34;116.70;;;66.60;;
17858;SDS011;35426;30.698;104.050;2022-10-15T04:23:14;111.97;;;63.20;;
17858;SDS011;35426;30.698;104.050;2022-10-15T04:26:08;113.33;;;63.80;;
17858;SDS011;35426;30.698;104.050;2022-10-15T04:28:59;111.07;;;61.83;;
17858;SDS011;35426;30.698;104.050;2022-10-15T04:31:37;103.60;;;59.50;;
17858;SDS011;35426;30.698;104.050;2022-10-15T04:34:19;102.40;;;60.27;;
17858;SDS011;35426;30.698;104.050;2022-10-15T04:36:54;113.13;;;61.27;;
17858;SDS011;35426;30.698;104.050;2022-10-15T04:39:33;115.13;;;64.37;;
17858;SDS011;35426;30.698;104.050;2022-10-15T04:42:13;112.13;;;63.37;;
17858;SDS011;35426;30.698;104.050;2022-10-15T04:44:57;108.30;;;63.03;;
17858;SDS011;35426;30.698;104.050;2022-10-15T04:47:39;104.80;;;61.07;;
17858;SDS011;35426;30.698;104.050;2022-10-15T04:50:18;110.63;;;62.87;;
17858;SDS011;35426;30.698;104.050;2022-10-15T04:53:21;114.10;;;65.73;;
17858;SDS011;35426;30.698;104.050;2022-10-15T04:55:59;119.33;;;63.53;;
17858;SDS011;35426;30.698;104.050;2022-10-15T04:58:39;109.07;;;62.90;;
17858;SDS011;35426;30.698;104.050;2022-10-15T05:01:23;110.70;;;62.70;;
17858;SDS011;35426;30.698;104.050;2022-10-15T05:04:10;108.70;;;62.30;;
17858;SDS011;35426;30.698;104.050;2022-10-15T05:06:47;111.20;;;63.03;;
17858;SDS011;35426;30.698;104.050;2022-10-15T05:09:25;114.10;;;63.00;;
17858;SDS011;35426;30.698;104.050;2022-10-15T05:12:05;119.17;;;64.90;;
17858;SDS011;35426;30.698;104.050;2022-10-15T05:14:44;118.07;;;66.60;;
17858;SDS011;35426;30.698;104.050;2022-10-15T05:17:31;99.63;;;61.50;;
17858;SDS011;35426;30.698;104.050;2022-10-15T05:20:09;114.67;;;66.27;;
17858;SDS011;35426;30.698;104.050;2022-10-15T05:22:46;111.23;;;64.43;;
17858;SDS011;35426;30.698;104.050;2022-10-15T05:25:23;114.17;;;64.43;;
17858;SDS011;35426;30.698;104.050;2022-10-15T05:28:00;109.13;;;64.97;;
17858;SDS011;35426;30.698;104.050;2022-10-15T05:30:41;107.83;;;65.13;;
17858;SDS011;35426;30.698;104.050;2022-10-15T05:33:20;102.93;;;61.00;;
17858;SDS011;35426;30.698;104.050;2022-10-15T05:36:06;111.30;;;60.67;;
17858;SDS011;35426;30.698;104.050;2022-10-15T05:38:54;108.20;;;60.90;;
17858;SDS011;35426;30.698;104.050;2022-10-15T05:41:35;104.63;;;63.43;;
17858;SDS011;35426;30.698;104.050;2022-10-15T05:44:17;110.67;;;57.17;;
17858;SDS011;35426;30.698;104.050;2022-10-15T05:46:58;96.40;;;56.13;;
17858;SDS011;35426;30.698;104.050;2022-10-15T05:49:37;97.83;;;55.93;;
17858;SDS011;35426;30.698;104.050;2022-10-15T05:52:39;100.83;;;57.67;;
17858;SDS011;35426;30.698;104.050;2022-10-15T05:55:24;99.47;;;59.20;;
17858;SDS011;35426;30.698;104.050;2022-10-15T05:58:04;103.27;;;58.20;;
17858;SDS011;35426;30.698;104.050;2022-10-15T06:00:40;104.43;;;58.50;;
17858;SDS011;35426;30.698;104.050;2022-10-15T06:03:18;101.07;;;59.50;;
17858;SDS011;35426;30.698;104.050;2022-10-15T06:06:07;102.33;;;58.57;;
17858;SDS011;35426;30.698;104.050;2022-10-15T06:08:49;98.27;;;57.83;;
17858;SDS011;35426;30.698;104.050;2022-10-15T06:11:25;98.67;;;58.07;;
17858;SDS011;35426;30.698;104.050;2022-10-15T06:14:01;92.63;;;56.73;;
17858;SDS011;35426;30.698;104.050;2022-10-15T06:16:37;93.10;;;53.40;;
17858;SDS011;35426;30.698;104.050;2022-10-15T06:19:13;93.93;;;53.60;;
17858;SDS011;35426;30.698;104.050;2022-10-15T06:21:51;93.53;;;54.27;;
17858;SDS011;35426;30.698;104.050;2022-10-15T06:24:28;99.07;;;55.33;;
17858;SDS011;35426;30.698;104.050;2022-10-15T06:27:10;93.23;;;54.87;;
17858;SDS011;35426;30.698;104.050;2022-10-15T06:29:47;93.03;;;53.00;;
17858;SDS011;35426;30.698;104.050;2022-10-15T06:32:24;84.23;;;52.93;;
17858;SDS011;35426;30.698;104.050;2022-10-15T06:35:05;96.80;;;55.70;;
17858;SDS011;35426;30.698;104.050;2022-10-15T06:37:42;95.80;;;55.90;;
17858;SDS011;35426;30.698;104.050;2022-10-15T06:40:17;96.47;;;55.67;;
17858;SDS011;35426;30.698;104.050;2022-10-15T06:42:54;96.10;;;54.93;;
17858;SDS011;35426;30.698;104.050;2022-10-15T06:45:40;104.03;;;58.53;;
17858;SDS011;35426;30.698;104.050;2022-10-15T06:48:17;98.60;;;54.50;;
17858;SDS011;35426;30.698;104.050;2022-10-15T06:50:53;78.83;;;43.10;;
17858;SDS011;35426;30.698;104.050;2022-10-15T06:53:32;71.80;;;41.50;;
17858;SDS011;35426;30.698;104.050;2022-10-15T06:56:11;56.13;;;32.40;;
17858;SDS011;35426;30.698;104.050;2022-10-15T06:58:50;55.80;;;28.53;;
17858;SDS011;35426;30.698;104.050;2022-10-15T07:01:28;64.63;;;35.60;;
17858;SDS011;35426;30.698;104.050;2022-10-15T07:04:11;64.77;;;35.70;;
17858;SDS011;35426;30.698;104.050;2022-10-15T07:06:50;55.40;;;30.03;;
17858;SDS011;35426;30.698;104.050;2022-10-15T07:09:35;61.23;;;32.97;;
17858;SDS011;35426;30.698;104.050;2022-10-15T07:12:13;52.27;;;29.63;;
17858;SDS011;35426;30.698;104.050;2022-10-15T07:14:55;53.87;;;26.43;;
17858;SDS011;35426;30.698;104.050;2022-10-15T07:17:33;48.70;;;24.53;;
17858;SDS011;35426;30.698;104.050;2022-10-15T07:20:11;40.43;;;20.00;;
17858;SDS011;35426;30.698;104.050;2022-10-15T07:22:55;37.97;;;18.43;;
17858;SDS011;35426;30.698;104.050;2022-10-15T07:25:35;40.20;;;19.03;;
17858;SDS011;35426;30.698;104.050;2022-10-15T07:28:10;40.57;;;19.53;;
17858;SDS011;35426;30.698;104.050;2022-10-15T07:30:46;39.97;;;20.50;;
17858;SDS011;35426;30.698;104.050;2022-10-15T07:33:22;46.67;;;25.43;;
17858;SDS011;35426;30.698;104.050;2022-10-15T07:36:01;45.33;;;24.47;;
17858;SDS011;35426;30.698;104.050;2022-10-15T07:38:38;50.90;;;23.10;;
17858;SDS011;35426;30.698;104.050;2022-10-15T07:41:15;49.53;;;26.70;;
17858;SDS011;35426;30.698;104.050;2022-10-15T07:43:51;55.30;;;31.03;;
17858;SDS011;35426;30.698;104.050;2022-10-15T07:46:27;59.87;;;31.63;;
17858;SDS011;35426;30.698;104.050;2022-10-15T07:49:04;63.37;;;33.60;;
17858;SDS011;35426;30.698;104.050;2022-10-15T07:51:45;67.43;;;36.33;;
17858;SDS011;35426;30.698;104.050;2022-10-15T07:54:24;62.97;;;37.10;;
17858;SDS011;35426;30.698;104.050;2022-10-15T07:57:06;69.97;;;36.83;;
17858;SDS011;35426;30.698;104.050;2022-10-15T07:59:42;66.67;;;35.77;;
17858;SDS011;35426;30.698;104.050;2022-10-15T08:02:22;64.40;;;36.23;;
17858;SDS011;35426;30.698;104.050;2022-10-15T08:04:59;69.47;;;36.47;;
17858;SDS011;35426;30.698;104.050;2022-10-15T08:07:38;66.27;;;35.90;;
17858;SDS011;35426;30.698;104.050;2022-10-15T08:10:19;63.13;;;35.30;;
17858;SDS011;35426;30.698;104.050;2022-10-15T08:12:57;68.30;;;35.87;;
17858;SDS011;35426;30.698;104.050;2022-10-15T08:15:40;64.37;;;33.90;;
17858;SDS011;35426;30.698;104.050;2022-10-15T08:18:18;65.83;;;36.13;;
17858;SDS011;35426;30.698;104.050;2022-10-15T08:20:58;62.73;;;33.07;;
17858;SDS011;35426;30.698;104.050;2022-10-15T08:23:34;65.03;;;34.87;;
17858;SDS011;35426;30.698;104.050;2022-10-15T08:26:17;62.53;;;35.07;;
17858;SDS011;35426;30.698;104.050;2022-10-15T08:29:00;59.07;;;32.50;;
17858;SDS011;35426;30.698;104.050;2022-10-15T08:31:39;61.37;;;31.93;;
17858;SDS011;35426;30.698;104.050;2022-10-15T08:34:15;70.53;;;36.30;;
17858;SDS011;35426;30.698;104.050;2022-10-15T08:36:50;71.47;;;35.40;;
17858;SDS011;35426;30.698;104.050;2022-10-15T08:39:28;61.57;;;31.93;;
17858;SDS011;35426;30.698;104.050;2022-10-15T08:42:13;69.53;;;32.90;;
17858;SDS011;35426;30.698;104.050;2022-10-15T08:44:56;62.73;;;34.37;;
17858;SDS011;35426;30.698;104.050;2022-10-15T08:47:44;71.77;;;36.80;;
17858;SDS011;35426;30.698;104.050;2022-10-15T08:50:25;68.70;;;34.73;;
17858;SDS011;35426;30.698;104.050;2022-10-15T08:53:10;66.97;;;39.27;;
17858;SDS011;35426;30.698;104.050;2022-10-15T08:55:54;67.07;;;35.30;;
17858;SDS011;35426;30.698;104.050;2022-10-15T08:58:38;65.57;;;36.90;;
17858;SDS011;35426;30.698;104.050;2022-10-15T09:01:23;67.87;;;37.33;;
17858;SDS011;35426;30.698;104.050;2022-10-15T09:04:13;72.73;;;40.47;;
17858;SDS011;35426;30.698;104.050;2022-10-15T09:07:00;77.50;;;37.70;;
17858;SDS011;35426;30.698;104.050;2022-10-15T09:09:47;76.17;;;38.93;;
17858;SDS011;35426;30.698;104.050;2022-10-15T09:12:31;77.83;;;38.17;;
17858;SDS011;35426;30.698;104.050;2022-10-15T09:15:16;68.00;;;38.83;;
17858;SDS011;35426;30.698;104.050;2022-10-15T09:17:58;76.13;;;39.20;;
17858;SDS011;35426;30.698;104.050;2022-10-15T09:20:37;70.93;;;38.07;;
17858;SDS011;35426;30.698;104.050;2022-10-15T09:23:16;78.73;;;39.17;;
17858;SDS011;35426;30.698;104.050;2022-10-15T09:25:58;68.03;;;39.07;;
17858;SDS011;35426;30.698;104.050;2022-10-15T09:28:42;75.10;;;39.70;;
17858;SDS011;35426;30.698;104.050;2022-10-15T09:31:24;85.10;;;41.00;;
17858;SDS011;35426;30.698;104.050;2022-10-15T09:34:15;80.40;;;40.33;;
17858;SDS011;35426;30.698;104.050;2022-10-15T09:37:02;78.33;;;40.30;;
17858;SDS011;35426;30.698;104.050;2022-10-15T09:40:05;71.87;;;38.53;;
17858;SDS011;35426;30.698;104.050;2022-10-15T09:43:01;69.60;;;38.93;;
17858;SDS011;35426;30.698;104.050;2022-10-15T09:45:39;75.63;;;40.87;;
17858;SDS011;35426;30.698;104.050;2022-10-15T09:48:16;72.73;;;38.73;;
17858;SDS011;35426;30.698;104.050;2022-10-15T09:50:57;82.43;;;40.07;;
17858;SDS011;35426;30.698;104.050;2022-10-15T09:53:39;79.43;;;40.43;;
17858;SDS011;35426;30.698;104.050;2022-10-15T09:56:27;74.37;;;38.83;;
17858;SDS011;35426;30.698;104.050;2022-10-15T09:59:14;75.93;;;39.83;;
17858;SDS011;35426;30.698;104.050;2022-10-15T10:01:56;75.90;;;39.07;;
17858;SDS011;35426;30.698;104.050;2022-10-15T10:04:33;75.33;;;38.67;;
17858;SDS011;35426;30.698;104.050;2022-10-15T10:07:29;75.63;;;38.77;;
17858;SDS011;35426;30.698;104.050;2022-10-15T10:10:22;74.67;;;37.80;;
17858;SDS011;35426;30.698;104.050;2022-10-15T10:13:04;82.40;;;36.00;;
17858;SDS011;35426;30.698;104.050;2022-10-15T10:15:52;72.20;;;35.27;;
17858;SDS011;35426;30.698;104.050;2022-10-15T10:18:33;72.60;;;35.43;;
17858;SDS011;35426;30.698;104.050;2022-10-15T10:21:23;73.33;;;35.97;;
17858;SDS011;35426;30.698;104.050;2022-10-15T10:24:27;70.03;;;34.23;;
17858;SDS011;35426;30.698;104.050;2022-10-15T10:27:18;70.23;;;35.33;;
17858;SDS011;35426;30.698;104.050;2022-10-15T10:29:55;70.20;;;35.17;;
17858;SDS011;35426;30.698;104.050;2022-10-15T10:32:34;68.63;;;34.60;;
17858;SDS011;35426;30.698;104.050;2022-10-15T10:35:15;74.47;;;35.47;;
17858;SDS011;35426;30.698;104.050;2022-10-15T10:37:55;79.10;;;36.90;;
17858;SDS011;35426;30.698;104.050;2022-10-15T10:40:35;76.00;;;36.33;;
17858;SDS011;35426;30.698;104.050;2022-10-15T10:43:17;85.23;;;36.70;;
17858;SDS011;35426;30.698;104.050;2022-10-15T10:46:03;74.77;;;37.80;;
17858;SDS011;35426;30.698;104.050;2022-10-15T10:48:52;77.90;;;38.00;;
17858;SDS011;35426;30.698;104.050;2022-10-15T10:51:30;74.63;;;38.67;;
17858;SDS011;35426;30.698;104.050;2022-10-15T10:54:05;85.80;;;39.37;;
17858;SDS011;35426;30.698;104.050;2022-10-15T10:56:51;88.93;;;39.43;;
17858;SDS011;35426;30.698;104.050;2022-10-15T10:59:43;77.17;;;38.33;;
17858;SDS011;35426;30.698;104.050;2022-10-15T11:02:24;82.37;;;39.73;;
17858;SDS011;35426;30.698;104.050;2022-10-15T11:05:00;87.97;;;39.57;;
17858;SDS011;35426;30.698;104.050;2022-10-15T11:07:42;92.63;;;42.23;;
17858;SDS011;35426;30.698;104.050;2022-10-15T11:10:28;95.93;;;43.33;;
17858;SDS011;35426;30.698;104.050;2022-10-15T11:13:18;97.60;;;44.60;;
17858;SDS011;35426;30.698;104.050;2022-10-15T11:16:10;91.20;;;43.00;;
17858;SDS011;35426;30.698;104.050;2022-10-15T11:18:59;93.13;;;47.03;;
17858;SDS011;35426;30.698;104.050;2022-10-15T11:22:20;90.37;;;44.83;;
17858;SDS011;35426;30.698;104.050;2022-10-15T11:25:18;99.33;;;44.17;;
17858;SDS011;35426;30.698;104.050;2022-10-15T11:31:22;99.77;;;42.40;;
17858;SDS011;35426;30.698;104.050;2022-10-15T11:34:31;87.17;;;40.97;;
17858;SDS011;35426;30.698;104.050;2022-10-15T11:37:22;89.83;;;41.33;;
17858;SDS011;35426;30.698;104.050;2022-10-15T11:40:16;83.93;;;38.37;;
17858;SDS011;35426;30.698;104.050;2022-10-15T11:42:57;89.63;;;41.43;;
17858;SDS011;35426;30.698;104.050;2022-10-15T11:48:47;86.37;;;40.67;;
17858;SDS011;35426;30.698;104.050;2022-10-15T11:51:33;84.63;;;41.33;;
17858;SDS011;35426;30.698;104.050;2022-10-15T11:54:25;85.07;;;41.67;;
17858;SDS011;35426;30.698;104.050;2022-10-15T11:57:06;80.37;;;40.10;;
17858;SDS011;35426;30.698;104.050;2022-10-15T11:59:48;83.77;;;40.97;;
17858;SDS011;35426;30.698;104.050;2022-10-15T12:02:43;91.70;;;39.60;;
17858;SDS011;35426;30.698;104.050;2022-10-15T12:05:25;92.87;;;41.43;;
17858;SDS011;35426;30.698;104.050;2022-10-15T12:08:09;86.30;;;41.13;;
17858;SDS011;35426;30.698;104.050;2022-10-15T12:10:55;91.20;;;43.87;;
17858;SDS011;35426;30.698;104.050;2022-10-15T12:13:46;90.23;;;42.27;;
17858;SDS011;35426;30.698;104.050;2022-10-15T12:16:27;88.87;;;42.83;;
17858;SDS011;35426;30.698;104.050;2022-10-15T12:19:19;92.87;;;41.10;;
17858;SDS011;35426;30.698;104.050;2022-10-15T12:22:08;91.50;;;41.70;;
17858;SDS011;35426;30.698;104.050;2022-10-15T12:24:51;84.67;;;41.93;;
17858;SDS011;35426;30.698;104.050;2022-10-15T12:27:29;95.17;;;43.17;;
17858;SDS011;35426;30.698;104.050;2022-10-15T12:33:20;94.37;;;42.37;;
17858;SDS011;35426;30.698;104.050;2022-10-15T12:36:18;88.67;;;41.70;;
17858;SDS011;35426;30.698;104.050;2022-10-15T12:38:58;86.73;;;41.50;;
17858;SDS011;35426;30.698;104.050;2022-10-15T12:41:56;95.80;;;41.70;;
17858;SDS011;35426;30.698;104.050;2022-10-15T12:44:38;94.23;;;41.80;;
17858;SDS011;35426;30.698;104.050;2022-10-15T12:50:29;92.43;;;42.57;;
17858;SDS011;35426;30.698;104.050;2022-10-15T12:56:20;94.27;;;43.23;;
17858;SDS011;35426;30.698;104.050;2022-10-15T12:58:56;87.40;;;41.77;;
17858;SDS011;35426;30.698;104.050;2022-10-15T13:04:38;91.43;;;42.80;;
17858;SDS011;35426;30.698;104.050;2022-10-15T13:07:18;97.10;;;44.50;;
17858;SDS011;35426;30.698;104.050;2022-10-15T13:10:03;97.00;;;44.87;;
17858;SDS011;35426;30.698;104.050;2022-10-15T13:12:52;94.57;;;43.50;;
17858;SDS011;35426;30.698;104.050;2022-10-15T13:15:31;99.33;;;43.10;;
17858;SDS011;35426;30.698;104.050;2022-10-15T13:18:18;100.40;;;43.13;;
17858;SDS011;35426;30.698;104.050;2022-10-15T13:20:59;97.57;;;45.07;;
17858;SDS011;35426;30.698;104.050;2022-10-15T13:23:45;89.80;;;43.43;;
17858;SDS011;35426;30.698;104.050;2022-10-15T13:26:28;93.80;;;42.63;;
17858;SDS011;35426;30.698;104.050;2022-10-15T13:29:13;86.07;;;44.33;;
17858;SDS011;35426;30.698;104.050;2022-10-15T13:31:56;101.30;;;43.37;;
17858;SDS011;35426;30.698;104.050;2022-10-15T13:34:38;95.87;;;42.90;;
17858;SDS011;35426;30.698;104.050;2022-10-15T13:37:23;90.30;;;44.63;;
17858;SDS011;35426;30.698;104.050;2022-10-15T13:40:15;96.37;;;44.53;;
17858;SDS011;35426;30.698;104.050;2022-10-15T13:43:00;88.10;;;43.47;;
17858;SDS011;35426;30.698;104.050;2022-10-15T13:45:38;91.63;;;42.20;;
17858;SDS011;35426;30.698;104.050;2022-10-15T13:48:40;81.40;;;40.07;;
17858;SDS011;35426;30.698;104.050;2022-10-15T13:51:25;89.97;;;42.30;;
17858;SDS011;35426;30.698;104.050;2022-10-15T13:54:19;97.17;;;41.73;;
17858;SDS011;35426;30.698;104.050;2022-10-15T13:56:57;81.70;;;41.40;;
17858;SDS011;35426;30.698;104.050;2022-10-15T13:59:46;82.87;;;41.47;;
17858;SDS011;35426;30.698;104.050;2022-10-15T14:02:38;85.23;;;40.97;;
17858;SDS011;35426;30.698;104.050;2022-10-15T14:05:46;88.23;;;43.03;;
17858;SDS011;35426;30.698;104.050;2022-10-15T14:08:25;99.10;;;44.53;;
17858;SDS011;35426;30.698;104.050;2022-10-15T14:11:05;93.87;;;45.23;;
17858;SDS011;35426;30.698;104.050;2022-10-15T14:13:44;99.83;;;45.97;;
17858;SDS011;35426;30.698;104.050;2022-10-15T14:16:27;96.37;;;45.00;;
17858;SDS011;35426;30.698;104.050;2022-10-15T14:19:22;96.70;;;45.03;;
17858;SDS011;35426;30.698;104.050;2022-10-15T14:22:02;99.83;;;45.70;;
17858;SDS011;35426;30.698;104.050;2022-10-15T14:24:42;101.97;;;47.37;;
17858;SDS011;35426;30.698;104.050;2022-10-15T14:27:21;99.30;;;46.87;;
17858;SDS011;35426;30.698;104.050;2022-10-15T14:30:12;102.00;;;46.17;;
17858;SDS011;35426;30.698;104.050;2022-10-15T14:32:57;102.87;;;47.43;;
17858;SDS011;35426;30.698;104.050;2022-10-15T14:35:33;96.67;;;46.23;;
17858;SDS011;35426;30.698;104.050;2022-10-15T14:38:15;103.23;;;47.47;;
17858;SDS011;35426;30.698;104.050;2022-10-15T14:40:56;107.13;;;46.03;;
17858;SDS011;35426;30.698;104.050;2022-10-15T14:43:38;103.23;;;47.97;;
17858;SDS011;35426;30.698;104.050;2022-10-15T14:46:18;103.63;;;47.47;;
17858;SDS011;35426;30.698;104.050;2022-10-15T14:49:00;108.87;;;46.87;;
17858;SDS011;35426;30.698;104.050;2022-10-15T14:51:44;102.17;;;48.30;;
17858;SDS011;35426;30.698;104.050;2022-10-15T14:54:37;111.47;;;50.73;;
17858;SDS011;35426;30.698;104.050;2022-10-15T14:57:28;105.77;;;49.23;;
17858;SDS011;35426;30.698;104.050;2022-10-15T15:00:23;99.30;;;47.70;;
17858;SDS011;35426;30.698;104.050;2022-10-15T15:03:12;99.13;;;48.70;;
17858;SDS011;35426;30.698;104.050;2022-10-15T15:06:02;99.10;;;46.50;;
17858;SDS011;35426;30.698;104.050;2022-10-15T15:08:40;105.93;;;48.43;;
17858;SDS011;35426;30.698;104.050;2022-10-15T15:14:20;93.40;;;45.47;;
17858;SDS011;35426;30.698;104.050;2022-10-15T15:16:59;84.60;;;44.63;;
17858;SDS011;35426;30.698;104.050;2022-10-15T15:19:43;89.63;;;44.93;;
17858;SDS011;35426;30.698;104.050;2022-10-15T15:22:26;78.50;;;42.30;;
17858;SDS011;35426;30.698;104.050;2022-10-15T15:25:06;85.07;;;44.70;;
17858;SDS011;35426;30.698;104.050;2022-10-15T15:27:51;80.43;;;42.63;;
17858;SDS011;35426;30.698;104.050;2022-10-15T15:30:38;83.50;;;44.10;;
17858;SDS011;35426;30.698;104.050;2022-10-15T15:33:17;82.20;;;42.60;;
17858;SDS011;35426;30.698;104.050;2022-10-15T15:36:01;86.67;;;43.63;;
17858;SDS011;35426;30.698;104.050;2022-10-15T15:38:43;85.53;;;42.97;;
17858;SDS011;35426;30.698;104.050;2022-10-15T15:41:21;81.90;;;43.77;;